金門航空站 - ATIS

METAR RCBS 161200Z 00000KT 9999 FEW020 BKN090 18/15 Q1021 NOSIG RMK A3017(Q)=

站台狀態:Online
最後更新:2018-12-16 23:45:01